aviador You're here:

URKA Decoded Metar

ANAPA/VITIAZEVO in RUSSIA
Report Time2018-06-18 19:00:00
UTC Time2018-06-18 19:14:17
Flight Rules vfr VFR
Wind060° at 6 kt
W.Decomp.*RWY 04: 5.8 kt HW 1.5 kt RCW
W.Rank060° ranks 3
Current wind is below 060° avg. (10.2)
Visibility9999 m
Phenomena:N/A
Clouds:N/A
Expected CloudBase > 1,600 ft AGL from Temp-Dew spread
CeilingNone
Temp20°C (ISA +5)
Dew Point16°C (78% RH)
AAT19.8°C
QNH1008 hPa
Density Alt1,211 ft
Elevation174 ft
Report Wrong Elevation
Raw Report
METAR URKA 181900Z 06003MPS CAVOK 20/16 Q1008 R04/010070 NOSIG RMK
QFE752/1003=

Extra information for URKA:More info

Metar Taf Metar & Taf Last 4 Metars F.Rules Stats Wind Profile Meteogram Temp Stats Airport Information Weather charts Add Link Nearby VenuesMetar ALERT Operation Metar Decoded Social comments